City Of Cleveland — WDC2358 — position and weather

sailwx.info

Track history (hours):
 
Tides and Currents Weather Stations Pressure Air Temp Water Temp Dewpoint Dewpoint Depression Visibility Wind Speed Wind Dir Waves Ship Positions

City Of Cleveland

Owner: JANTRAN, INC., ROSEDALE, MS. More information available from US FCC via Universal Licensing System and Coast Guard Vessel Documentation Center.

Last reported at 2018-Feb-16 06:51 UTC. Time now 2018-Feb-19 14:36 UTC.
Position N 32°40' W 091°08'.

Length 42 m; draft 12.5 m.

Type: Towing. MMSI: 366991810.

Date/timePositionNaut miles runAvg speedWind from/ knotsBaromVisibWave heightAir tempDewpointWater temp
2018-Feb-16 06:51N 32°40' W 091°08'3 2.1
2018-Feb-16 05:19N 32°37' W 091°09'3 3.5
2018-Feb-16 04:31N 32°35' W 091°07'5 3.7
2018-Feb-16 03:11N 32°30' W 091°07'1 5.3
2018-Feb-16 03:00N 32°29' W 091°07'0 0.6
2018-Feb-16 02:30N 32°29' W 091°07'0 0.0
2018-Feb-16 02:00N 32°29' W 091°07'0 0.0
2018-Feb-16 01:30N 32°29' W 091°07'0 0.0
2018-Feb-16 01:00N 32°29' W 091°07'0 0.0
2018-Feb-16 00:30N 32°29' W 091°07'0 0.0
2018-Feb-16 00:00N 32°29' W 091°07'1 1.9
2018-Feb-15 23:14N 32°28' W 091°06'1 4.2
2018-Feb-15 22:55N 32°27' W 091°05'2 4.0
2018-Feb-15 22:30N 32°26' W 091°03'2 3.5
2018-Feb-15 22:00N 32°26' W 091°01'2 3.5
2018-Feb-15 21:30N 32°24' W 090°59'2 3.5
2018-Feb-15 21:00N 32°23' W 091°00'2 3.2
2018-Feb-15 20:30N 32°21' W 090°60'2 4.4
2018-Feb-15 20:00N 32°21' W 090°57'2 4.0
2018-Feb-15 19:30N 32°20' W 090°55'1 3.0
2018-Feb-15 19:00N 32°19' W 090°54'1 2.3
2018-Feb-15 18:30N 32°18' W 090°55'0 0.0
2018-Feb-15 18:00N 32°18' W 090°55'0 0.0
2018-Feb-15 17:30N 32°18' W 090°55'0 0.0
2018-Feb-15 17:00N 32°18' W 090°55'0 0.0
2018-Feb-15 16:30N 32°18' W 090°55'0 0.1
2018-Feb-15 16:00N 32°18' W 090°55'0 0.1
2018-Feb-15 15:30N 32°18' W 090°55'0 0.1
2018-Feb-15 15:00N 32°18' W 090°55'0 0.0
2018-Feb-15 14:30N 32°18' W 090°55'0 0.0
2018-Feb-15 14:00N 32°18' W 090°55'0 0.0
2018-Feb-15 13:30N 32°18' W 090°55'0 0.0
2018-Feb-15 13:00N 32°18' W 090°55'0 0.0
2018-Feb-15 12:30N 32°18' W 090°55'0 0.0
2018-Feb-15 12:00N 32°18' W 090°55'0 0.0
2018-Feb-15 11:30N 32°18' W 090°55'0 0.0
2018-Feb-15 11:00N 32°18' W 090°55'0 0.0
2018-Feb-15 10:30N 32°18' W 090°55'0 0.0
2018-Feb-15 10:00N 32°18' W 090°55'0 0.0
2018-Feb-15 09:30N 32°18' W 090°55'0 0.0
2018-Feb-15 09:00N 32°18' W 090°55'0 0.3
2018-Feb-15 08:30N 32°18' W 090°55'2 3.2
2018-Feb-15 08:00N 32°17' W 090°57'2 4.5
2018-Feb-15 07:30N 32°15' W 090°58'1 2.6
2018-Feb-15 07:00N 32°14' W 090°59'1 1.7
2018-Feb-15 06:30N 32°13' W 090°59'2 4.0
2018-Feb-15 06:00N 32°11' W 090°60'2 4.3
2018-Feb-15 05:30N 32°09' W 091°00'2 4.2
2018-Feb-15 05:00N 32°07' W 091°01'2 4.0
2018-Feb-15 04:30N 32°08' W 091°03'2 4.3
2018-Feb-15 04:00N 32°08' W 091°06'2 3.5
2018-Feb-15 03:30N 32°06' W 091°06'3 2.3
2018-Feb-15 02:00N 32°04' W 091°03'2 4.6
2018-Feb-15 01:28N 32°01' W 091°04'1 1.9
2018-Feb-15 00:56N 32°00' W 091°05'  
Track history (hours):
 
Tides and Currents Weather Stations Pressure Air Temp Water Temp Dewpoint Dewpoint Depression Visibility Wind Speed Wind Dir Waves Ship Positions

City Of Cleveland

Owner: JANTRAN, INC., ROSEDALE, MS. More information available from US FCC via Universal Licensing System and Coast Guard Vessel Documentation Center.

Last reported at 2018-Feb-16 06:51 UTC. Time now 2018-Feb-19 14:36 UTC.
Position N 32°40' W 091°08'.

Length 42 m; draft 12.5 m.

Type: Towing. MMSI: 366991810.

Date/timePositionNaut miles runAvg speedWind from/ knotsBaromVisibWave heightAir tempDewpointWater temp
2018-Feb-16 06:51N 32°40' W 091°08'3 2.1
2018-Feb-16 05:19N 32°37' W 091°09'3 3.5
2018-Feb-16 04:31N 32°35' W 091°07'5 3.7
2018-Feb-16 03:11N 32°30' W 091°07'1 5.3
2018-Feb-16 03:00N 32°29' W 091°07'0 0.6
2018-Feb-16 02:30N 32°29' W 091°07'0 0.0
2018-Feb-16 02:00N 32°29' W 091°07'0 0.0
2018-Feb-16 01:30N 32°29' W 091°07'0 0.0
2018-Feb-16 01:00N 32°29' W 091°07'0 0.0
2018-Feb-16 00:30N 32°29' W 091°07'0 0.0
2018-Feb-16 00:00N 32°29' W 091°07'1 1.9
2018-Feb-15 23:14N 32°28' W 091°06'1 4.2
2018-Feb-15 22:55N 32°27' W 091°05'2 4.0
2018-Feb-15 22:30N 32°26' W 091°03'2 3.5
2018-Feb-15 22:00N 32°26' W 091°01'2 3.5
2018-Feb-15 21:30N 32°24' W 090°59'2 3.5
2018-Feb-15 21:00N 32°23' W 091°00'2 3.2
2018-Feb-15 20:30N 32°21' W 090°60'2 4.4
2018-Feb-15 20:00N 32°21' W 090°57'2 4.0
2018-Feb-15 19:30N 32°20' W 090°55'1 3.0
2018-Feb-15 19:00N 32°19' W 090°54'1 2.3
2018-Feb-15 18:30N 32°18' W 090°55'0 0.0
2018-Feb-15 18:00N 32°18' W 090°55'0 0.0
2018-Feb-15 17:30N 32°18' W 090°55'0 0.0
2018-Feb-15 17:00N 32°18' W 090°55'0 0.0
2018-Feb-15 16:30N 32°18' W 090°55'0 0.1
2018-Feb-15 16:00N 32°18' W 090°55'0 0.1
2018-Feb-15 15:30N 32°18' W 090°55'0 0.1
2018-Feb-15 15:00N 32°18' W 090°55'0 0.0
2018-Feb-15 14:30N 32°18' W 090°55'0 0.0
2018-Feb-15 14:00N 32°18' W 090°55'0 0.0
2018-Feb-15 13:30N 32°18' W 090°55'0 0.0
2018-Feb-15 13:00N 32°18' W 090°55'0 0.0
2018-Feb-15 12:30N 32°18' W 090°55'0 0.0
2018-Feb-15 12:00N 32°18' W 090°55'0 0.0
2018-Feb-15 11:30N 32°18' W 090°55'0 0.0
2018-Feb-15 11:00N 32°18' W 090°55'0 0.0
2018-Feb-15 10:30N 32°18' W 090°55'0 0.0
2018-Feb-15 10:00N 32°18' W 090°55'0 0.0
2018-Feb-15 09:30N 32°18' W 090°55'0 0.0
2018-Feb-15 09:00N 32°18' W 090°55'0 0.3
2018-Feb-15 08:30N 32°18' W 090°55'2 3.2
2018-Feb-15 08:00N 32°17' W 090°57'2 4.5
2018-Feb-15 07:30N 32°15' W 090°58'1 2.6
2018-Feb-15 07:00N 32°14' W 090°59'1 1.7
2018-Feb-15 06:30N 32°13' W 090°59'2 4.0
2018-Feb-15 06:00N 32°11' W 090°60'2 4.3
2018-Feb-15 05:30N 32°09' W 091°00'2 4.2
2018-Feb-15 05:00N 32°07' W 091°01'2 4.0
2018-Feb-15 04:30N 32°08' W 091°03'2 4.3
2018-Feb-15 04:00N 32°08' W 091°06'2 3.5
2018-Feb-15 03:30N 32°06' W 091°06'3 2.3
2018-Feb-15 02:00N 32°04' W 091°03'2 4.6
2018-Feb-15 01:28N 32°01' W 091°04'1 1.9
2018-Feb-15 00:56N 32°00' W 091°05'  

Dump ship's entire track history